sensor_id;sensor_type;location;lat;lon;timestamp;temperature;humidity
38118;DHT22;23928;47.562;7.508;2023-08-07T00:00:33;13.50;99.90
38118;DHT22;23928;47.562;7.508;2023-08-07T00:02:59;13.40;99.90
38118;DHT22;23928;47.562;7.508;2023-08-07T00:05:24;13.40;99.90
38118;DHT22;23928;47.562;7.508;2023-08-07T00:07:50;13.50;99.90
38118;DHT22;23928;47.562;7.508;2023-08-07T00:10:15;13.40;99.90
38118;DHT22;23928;47.562;7.508;2023-08-07T00:12:41;13.40;99.90
38118;DHT22;23928;47.562;7.508;2023-08-07T00:15:08;13.30;99.90
38118;DHT22;23928;47.562;7.508;2023-08-07T00:17:34;13.30;99.90
38118;DHT22;23928;47.562;7.508;2023-08-07T00:20:00;13.40;99.90
38118;DHT22;23928;47.562;7.508;2023-08-07T00:22:25;13.20;99.90
38118;DHT22;23928;47.562;7.508;2023-08-07T00:24:51;13.20;99.90
38118;DHT22;23928;47.562;7.508;2023-08-07T00:27:16;13.20;99.90
38118;DHT22;23928;47.562;7.508;2023-08-07T00:29:42;13.10;99.90
38118;DHT22;23928;47.562;7.508;2023-08-07T00:32:08;13.10;99.90
38118;DHT22;23928;47.562;7.508;2023-08-07T00:34:34;13.00;99.90
38118;DHT22;23928;47.562;7.508;2023-08-07T00:36:59;12.90;99.90
38118;DHT22;23928;47.562;7.508;2023-08-07T00:39:25;12.80;99.90
38118;DHT22;23928;47.562;7.508;2023-08-07T00:41:50;13.00;99.90
38118;DHT22;23928;47.562;7.508;2023-08-07T00:44:16;13.00;99.90
38118;DHT22;23928;47.562;7.508;2023-08-07T00:46:42;13.10;99.90
38118;DHT22;23928;47.562;7.508;2023-08-07T00:49:09;13.00;99.90
38118;DHT22;23928;47.562;7.508;2023-08-07T00:51:37;13.00;99.90
38118;DHT22;23928;47.562;7.508;2023-08-07T00:54:04;13.00;99.90
38118;DHT22;23928;47.562;7.508;2023-08-07T00:56:30;13.10;99.90
38118;DHT22;23928;47.562;7.508;2023-08-07T00:58:58;13.10;99.90
38118;DHT22;23928;47.562;7.508;2023-08-07T01:01:24;12.90;99.90
38118;DHT22;23928;47.562;7.508;2023-08-07T01:03:50;13.00;99.90
38118;DHT22;23928;47.562;7.508;2023-08-07T01:06:15;13.20;99.90
38118;DHT22;23928;47.562;7.508;2023-08-07T01:08:41;13.10;99.90
38118;DHT22;23928;47.562;7.508;2023-08-07T01:16:51;13.20;99.90
38118;DHT22;23928;47.562;7.508;2023-08-07T01:19:28;13.20;99.90
38118;DHT22;23928;47.562;7.508;2023-08-07T01:22:07;13.30;99.90
38118;DHT22;23928;47.562;7.508;2023-08-07T01:24:33;13.30;99.90
38118;DHT22;23928;47.562;7.508;2023-08-07T01:35:32;13.10;99.90
38118;DHT22;23928;47.562;7.508;2023-08-07T01:37:59;13.00;99.90
38118;DHT22;23928;47.562;7.508;2023-08-07T01:40:27;13.10;99.90
38118;DHT22;23928;47.562;7.508;2023-08-07T01:42:53;13.10;99.90
38118;DHT22;23928;47.562;7.508;2023-08-07T01:45:26;13.20;99.90
38118;DHT22;23928;47.562;7.508;2023-08-07T01:47:52;13.20;99.90
38118;DHT22;23928;47.562;7.508;2023-08-07T01:50:22;13.20;99.90
38118;DHT22;23928;47.562;7.508;2023-08-07T01:52:48;13.20;99.90
38118;DHT22;23928;47.562;7.508;2023-08-07T01:55:14;13.30;99.90
38118;DHT22;23928;47.562;7.508;2023-08-07T01:57:40;13.20;99.90
38118;DHT22;23928;47.562;7.508;2023-08-07T02:00:06;13.30;99.90
38118;DHT22;23928;47.562;7.508;2023-08-07T02:02:33;13.20;99.90
38118;DHT22;23928;47.562;7.508;2023-08-07T02:04:59;13.30;99.90
38118;DHT22;23928;47.562;7.508;2023-08-07T02:07:25;13.30;99.90
38118;DHT22;23928;47.562;7.508;2023-08-07T02:09:50;13.30;99.90
38118;DHT22;23928;47.562;7.508;2023-08-07T02:12:16;13.30;99.90
38118;DHT22;23928;47.562;7.508;2023-08-07T02:14:41;13.10;99.90
38118;DHT22;23928;47.562;7.508;2023-08-07T02:17:07;13.20;99.90
38118;DHT22;23928;47.562;7.508;2023-08-07T02:19:32;13.00;99.90
38118;DHT22;23928;47.562;7.508;2023-08-07T02:21:58;13.20;99.90
38118;DHT22;23928;47.562;7.508;2023-08-07T02:24:24;13.20;99.90
38118;DHT22;23928;47.562;7.508;2023-08-07T02:26:49;13.30;99.90
38118;DHT22;23928;47.562;7.508;2023-08-07T02:29:15;13.30;99.90
38118;DHT22;23928;47.562;7.508;2023-08-07T02:31:40;13.20;99.90
38118;DHT22;23928;47.562;7.508;2023-08-07T02:34:06;13.30;99.90
38118;DHT22;23928;47.562;7.508;2023-08-07T02:36:32;13.20;99.90
38118;DHT22;23928;47.562;7.508;2023-08-07T02:38:57;13.30;99.90
38118;DHT22;23928;47.562;7.508;2023-08-07T02:41:23;13.30;99.90
38118;DHT22;23928;47.562;7.508;2023-08-07T02:43:49;13.20;99.90
38118;DHT22;23928;47.562;7.508;2023-08-07T02:46:14;13.30;99.90
38118;DHT22;23928;47.562;7.508;2023-08-07T02:48:40;13.10;99.90
38118;DHT22;23928;47.562;7.508;2023-08-07T02:51:05;13.10;99.90
38118;DHT22;23928;47.562;7.508;2023-08-07T02:53:31;13.20;99.90
38118;DHT22;23928;47.562;7.508;2023-08-07T02:55:57;13.40;99.90
38118;DHT22;23928;47.562;7.508;2023-08-07T02:58:22;13.20;99.90
38118;DHT22;23928;47.562;7.508;2023-08-07T03:00:48;13.20;99.90
38118;DHT22;23928;47.562;7.508;2023-08-07T03:03:14;13.20;99.90
38118;DHT22;23928;47.562;7.508;2023-08-07T03:05:48;13.20;99.90
38118;DHT22;23928;47.562;7.508;2023-08-07T03:08:14;13.10;99.90
38118;DHT22;23928;47.562;7.508;2023-08-07T03:10:40;13.20;99.90
38118;DHT22;23928;47.562;7.508;2023-08-07T03:13:06;13.20;99.90
38118;DHT22;23928;47.562;7.508;2023-08-07T03:15:31;13.10;99.90
38118;DHT22;23928;47.562;7.508;2023-08-07T03:17:57;13.10;99.90
38118;DHT22;23928;47.562;7.508;2023-08-07T03:20:22;13.20;99.90
38118;DHT22;23928;47.562;7.508;2023-08-07T03:22:48;13.20;99.90
38118;DHT22;23928;47.562;7.508;2023-08-07T03:25:13;13.20;99.90
38118;DHT22;23928;47.562;7.508;2023-08-07T03:27:39;13.20;99.90
38118;DHT22;23928;47.562;7.508;2023-08-07T03:30:05;13.10;99.90
38118;DHT22;23928;47.562;7.508;2023-08-07T03:32:31;13.20;99.90
38118;DHT22;23928;47.562;7.508;2023-08-07T03:34:56;13.10;99.90
38118;DHT22;23928;47.562;7.508;2023-08-07T03:37:22;13.20;99.90
38118;DHT22;23928;47.562;7.508;2023-08-07T03:39:47;13.20;99.90
38118;DHT22;23928;47.562;7.508;2023-08-07T03:42:14;13.20;99.90
38118;DHT22;23928;47.562;7.508;2023-08-07T03:44:42;13.20;99.90
38118;DHT22;23928;47.562;7.508;2023-08-07T03:47:08;13.20;99.90
38118;DHT22;23928;47.562;7.508;2023-08-07T03:49:34;13.30;99.90
38118;DHT22;23928;47.562;7.508;2023-08-07T03:51:59;13.20;99.90
38118;DHT22;23928;47.562;7.508;2023-08-07T03:54:25;13.30;99.90
38118;DHT22;23928;47.562;7.508;2023-08-07T03:56:51;13.10;99.90
38118;DHT22;23928;47.562;7.508;2023-08-07T03:59:17;13.20;99.90
38118;DHT22;23928;47.562;7.508;2023-08-07T04:01:42;13.10;99.90
38118;DHT22;23928;47.562;7.508;2023-08-07T04:04:08;13.10;99.90
38118;DHT22;23928;47.562;7.508;2023-08-07T04:06:33;13.10;99.90
38118;DHT22;23928;47.562;7.508;2023-08-07T04:08:59;13.10;99.90
38118;DHT22;23928;47.562;7.508;2023-08-07T04:11:25;13.00;99.90
38118;DHT22;23928;47.562;7.508;2023-08-07T04:13:51;13.10;99.90
38118;DHT22;23928;47.562;7.508;2023-08-07T04:16:17;13.20;99.90
38118;DHT22;23928;47.562;7.508;2023-08-07T04:18:43;13.00;99.90
38118;DHT22;23928;47.562;7.508;2023-08-07T04:21:08;13.00;99.90
38118;DHT22;23928;47.562;7.508;2023-08-07T04:23:34;13.00;99.90
38118;DHT22;23928;47.562;7.508;2023-08-07T04:26:00;13.00;99.90
38118;DHT22;23928;47.562;7.508;2023-08-07T04:28:28;13.10;99.90
38118;DHT22;23928;47.562;7.508;2023-08-07T04:30:53;13.10;99.90
38118;DHT22;23928;47.562;7.508;2023-08-07T04:33:22;13.10;99.90
38118;DHT22;23928;47.562;7.508;2023-08-07T04:35:48;13.10;99.90
38118;DHT22;23928;47.562;7.508;2023-08-07T04:38:17;12.90;99.90
38118;DHT22;23928;47.562;7.508;2023-08-07T04:40:47;13.10;99.90
38118;DHT22;23928;47.562;7.508;2023-08-07T04:43:13;13.10;99.90
38118;DHT22;23928;47.562;7.508;2023-08-07T04:45:39;13.00;99.90
38118;DHT22;23928;47.562;7.508;2023-08-07T04:48:06;13.00;99.90
38118;DHT22;23928;47.562;7.508;2023-08-07T04:50:32;13.10;99.90
38118;DHT22;23928;47.562;7.508;2023-08-07T04:52:57;13.20;99.90
38118;DHT22;23928;47.562;7.508;2023-08-07T04:55:23;13.10;99.90
38118;DHT22;23928;47.562;7.508;2023-08-07T04:57:48;13.10;99.90
38118;DHT22;23928;47.562;7.508;2023-08-07T05:00:16;13.10;99.90
38118;DHT22;23928;47.562;7.508;2023-08-07T05:02:42;13.20;99.90
38118;DHT22;23928;47.562;7.508;2023-08-07T05:05:08;13.20;99.90
38118;DHT22;23928;47.562;7.508;2023-08-07T05:07:35;13.20;99.90
38118;DHT22;23928;47.562;7.508;2023-08-07T05:10:02;13.30;99.90
38118;DHT22;23928;47.562;7.508;2023-08-07T05:12:28;13.30;99.90
38118;DHT22;23928;47.562;7.508;2023-08-07T05:14:53;13.20;99.90
38118;DHT22;23928;47.562;7.508;2023-08-07T05:17:19;13.10;99.90
38118;DHT22;23928;47.562;7.508;2023-08-07T05:19:44;13.30;99.90
38118;DHT22;23928;47.562;7.508;2023-08-07T05:22:10;13.30;99.90
38118;DHT22;23928;47.562;7.508;2023-08-07T05:24:36;13.30;99.90
38118;DHT22;23928;47.562;7.508;2023-08-07T05:27:08;13.30;99.90
38118;DHT22;23928;47.562;7.508;2023-08-07T05:29:34;13.30;99.90
38118;DHT22;23928;47.562;7.508;2023-08-07T05:32:02;13.30;99.90
38118;DHT22;23928;47.562;7.508;2023-08-07T05:34:29;13.30;99.90
38118;DHT22;23928;47.562;7.508;2023-08-07T05:36:54;13.30;99.90
38118;DHT22;23928;47.562;7.508;2023-08-07T05:39:20;13.30;99.90
38118;DHT22;23928;47.562;7.508;2023-08-07T05:41:45;13.30;99.90
38118;DHT22;23928;47.562;7.508;2023-08-07T05:44:11;13.40;99.90
38118;DHT22;23928;47.562;7.508;2023-08-07T05:46:36;13.40;99.90
38118;DHT22;23928;47.562;7.508;2023-08-07T05:49:02;13.50;99.90
38118;DHT22;23928;47.562;7.508;2023-08-07T05:51:27;13.50;99.90
38118;DHT22;23928;47.562;7.508;2023-08-07T05:53:53;13.70;99.90
38118;DHT22;23928;47.562;7.508;2023-08-07T05:56:18;13.70;99.90
38118;DHT22;23928;47.562;7.508;2023-08-07T05:58:44;13.70;99.90
38118;DHT22;23928;47.562;7.508;2023-08-07T06:01:10;13.70;99.90
38118;DHT22;23928;47.562;7.508;2023-08-07T06:03:35;13.60;99.90
38118;DHT22;23928;47.562;7.508;2023-08-07T06:06:01;13.60;99.90
38118;DHT22;23928;47.562;7.508;2023-08-07T06:08:26;13.60;99.90
38118;DHT22;23928;47.562;7.508;2023-08-07T06:10:52;13.60;99.90
38118;DHT22;23928;47.562;7.508;2023-08-07T06:13:17;13.70;99.90
38118;DHT22;23928;47.562;7.508;2023-08-07T06:15:43;13.70;99.90
38118;DHT22;23928;47.562;7.508;2023-08-07T06:18:09;13.70;99.90
38118;DHT22;23928;47.562;7.508;2023-08-07T06:20:34;13.70;99.90
38118;DHT22;23928;47.562;7.508;2023-08-07T06:23:00;13.70;99.90
38118;DHT22;23928;47.562;7.508;2023-08-07T06:25:26;13.70;99.90
38118;DHT22;23928;47.562;7.508;2023-08-07T06:27:52;13.70;99.90
38118;DHT22;23928;47.562;7.508;2023-08-07T06:30:18;13.70;99.90
38118;DHT22;23928;47.562;7.508;2023-08-07T06:32:44;13.70;99.90
38118;DHT22;23928;47.562;7.508;2023-08-07T06:35:09;13.70;99.90
38118;DHT22;23928;47.562;7.508;2023-08-07T06:37:35;13.60;99.90
38118;DHT22;23928;47.562;7.508;2023-08-07T06:40:01;13.60;99.90
38118;DHT22;23928;47.562;7.508;2023-08-07T06:42:27;13.70;99.90
38118;DHT22;23928;47.562;7.508;2023-08-07T06:44:53;13.80;99.90
38118;DHT22;23928;47.562;7.508;2023-08-07T06:47:18;13.60;99.90
38118;DHT22;23928;47.562;7.508;2023-08-07T06:49:44;13.70;99.90
38118;DHT22;23928;47.562;7.508;2023-08-07T06:52:09;13.80;99.90
38118;DHT22;23928;47.562;7.508;2023-08-07T06:54:35;13.80;99.90
38118;DHT22;23928;47.562;7.508;2023-08-07T06:57:00;13.90;99.90
38118;DHT22;23928;47.562;7.508;2023-08-07T06:59:26;14.00;99.90
38118;DHT22;23928;47.562;7.508;2023-08-07T07:01:52;14.00;99.90
38118;DHT22;23928;47.562;7.508;2023-08-07T07:04:17;14.10;99.90
38118;DHT22;23928;47.562;7.508;2023-08-07T07:06:43;14.20;99.90
38118;DHT22;23928;47.562;7.508;2023-08-07T07:09:09;14.10;99.90
38118;DHT22;23928;47.562;7.508;2023-08-07T07:11:34;14.30;99.90
38118;DHT22;23928;47.562;7.508;2023-08-07T07:14:00;14.40;99.90
38118;DHT22;23928;47.562;7.508;2023-08-07T07:16:26;14.60;99.90
38118;DHT22;23928;47.562;7.508;2023-08-07T07:18:52;14.70;99.90
38118;DHT22;23928;47.562;7.508;2023-08-07T07:21:18;14.70;99.90
38118;DHT22;23928;47.562;7.508;2023-08-07T07:23:44;14.80;99.90
38118;DHT22;23928;47.562;7.508;2023-08-07T07:26:09;14.60;99.90
38118;DHT22;23928;47.562;7.508;2023-08-07T07:28:35;14.50;99.90
38118;DHT22;23928;47.562;7.508;2023-08-07T07:31:00;14.50;99.90
38118;DHT22;23928;47.562;7.508;2023-08-07T07:33:27;14.40;99.90
38118;DHT22;23928;47.562;7.508;2023-08-07T07:35:53;14.50;99.90
38118;DHT22;23928;47.562;7.508;2023-08-07T07:38:19;14.80;99.90
38118;DHT22;23928;47.562;7.508;2023-08-07T07:40:44;14.70;99.90
38118;DHT22;23928;47.562;7.508;2023-08-07T07:43:10;14.80;99.90
38118;DHT22;23928;47.562;7.508;2023-08-07T07:45:36;15.10;99.90
38118;DHT22;23928;47.562;7.508;2023-08-07T07:48:02;15.00;99.90
38118;DHT22;23928;47.562;7.508;2023-08-07T07:50:28;14.90;99.90
38118;DHT22;23928;47.562;7.508;2023-08-07T07:52:54;15.10;99.90
38118;DHT22;23928;47.562;7.508;2023-08-07T07:55:20;15.10;99.90
38118;DHT22;23928;47.562;7.508;2023-08-07T07:57:45;15.10;99.90
38118;DHT22;23928;47.562;7.508;2023-08-07T08:00:12;15.00;99.90
38118;DHT22;23928;47.562;7.508;2023-08-07T08:02:41;15.00;99.90
38118;DHT22;23928;47.562;7.508;2023-08-07T08:05:08;15.10;99.90
38118;DHT22;23928;47.562;7.508;2023-08-07T08:07:36;15.10;99.90
38118;DHT22;23928;47.562;7.508;2023-08-07T08:10:02;15.40;99.90
38118;DHT22;23928;47.562;7.508;2023-08-07T08:12:30;15.20;99.90
38118;DHT22;23928;47.562;7.508;2023-08-07T08:14:56;15.50;99.90
38118;DHT22;23928;47.562;7.508;2023-08-07T08:17:22;15.60;99.90
38118;DHT22;23928;47.562;7.508;2023-08-07T08:19:48;15.60;99.90
38118;DHT22;23928;47.562;7.508;2023-08-07T08:22:13;15.40;99.90
38118;DHT22;23928;47.562;7.508;2023-08-07T08:24:39;15.60;99.90
38118;DHT22;23928;47.562;7.508;2023-08-07T08:27:05;15.80;99.90
38118;DHT22;23928;47.562;7.508;2023-08-07T08:29:31;15.50;99.90
38118;DHT22;23928;47.562;7.508;2023-08-07T08:31:56;15.50;99.90
38118;DHT22;23928;47.562;7.508;2023-08-07T08:34:22;15.40;99.90
38118;DHT22;23928;47.562;7.508;2023-08-07T08:36:48;15.90;99.90
38118;DHT22;23928;47.562;7.508;2023-08-07T08:39:13;16.10;99.90
38118;DHT22;23928;47.562;7.508;2023-08-07T08:41:40;16.40;99.90
38118;DHT22;23928;47.562;7.508;2023-08-07T08:44:10;15.90;99.90
38118;DHT22;23928;47.562;7.508;2023-08-07T08:46:38;16.00;99.90
38118;DHT22;23928;47.562;7.508;2023-08-07T08:49:05;16.20;99.90
38118;DHT22;23928;47.562;7.508;2023-08-07T08:51:33;16.20;99.90
38118;DHT22;23928;47.562;7.508;2023-08-07T08:53:59;16.20;99.90
38118;DHT22;23928;47.562;7.508;2023-08-07T08:56:25;16.20;99.90
38118;DHT22;23928;47.562;7.508;2023-08-07T08:58:51;16.50;99.90
38118;DHT22;23928;47.562;7.508;2023-08-07T09:01:18;16.40;99.90
38118;DHT22;23928;47.562;7.508;2023-08-07T09:03:44;16.60;99.90
38118;DHT22;23928;47.562;7.508;2023-08-07T09:06:11;16.60;99.90
38118;DHT22;23928;47.562;7.508;2023-08-07T09:08:43;16.90;99.90
38118;DHT22;23928;47.562;7.508;2023-08-07T09:11:10;16.80;99.90
38118;DHT22;23928;47.562;7.508;2023-08-07T09:13:37;16.70;99.90
38118;DHT22;23928;47.562;7.508;2023-08-07T09:16:05;16.80;99.90
38118;DHT22;23928;47.562;7.508;2023-08-07T09:18:33;16.80;99.90
38118;DHT22;23928;47.562;7.508;2023-08-07T09:20:59;16.90;99.90
38118;DHT22;23928;47.562;7.508;2023-08-07T09:23:25;17.10;99.90
38118;DHT22;23928;47.562;7.508;2023-08-07T09:26:04;17.00;99.90
38118;DHT22;23928;47.562;7.508;2023-08-07T09:28:31;16.50;99.90
38118;DHT22;23928;47.562;7.508;2023-08-07T09:30:59;16.70;99.90
38118;DHT22;23928;47.562;7.508;2023-08-07T09:33:25;16.70;99.90
38118;DHT22;23928;47.562;7.508;2023-08-07T09:35:51;16.60;99.90
38118;DHT22;23928;47.562;7.508;2023-08-07T09:38:17;16.60;99.90
38118;DHT22;23928;47.562;7.508;2023-08-07T09:40:43;16.90;99.90
38118;DHT22;23928;47.562;7.508;2023-08-07T09:43:08;16.90;99.90
38118;DHT22;23928;47.562;7.508;2023-08-07T09:45:36;16.90;99.90
38118;DHT22;23928;47.562;7.508;2023-08-07T09:48:06;16.80;99.90
38118;DHT22;23928;47.562;7.508;2023-08-07T09:50:32;16.70;99.90
38118;DHT22;23928;47.562;7.508;2023-08-07T09:52:58;16.80;99.90
38118;DHT22;23928;47.562;7.508;2023-08-07T09:55:24;16.90;99.90
38118;DHT22;23928;47.562;7.508;2023-08-07T09:57:50;16.70;99.90
38118;DHT22;23928;47.562;7.508;2023-08-07T10:00:16;16.90;99.90
38118;DHT22;23928;47.562;7.508;2023-08-07T10:02:48;17.20;99.90
38118;DHT22;23928;47.562;7.508;2023-08-07T10:05:15;17.10;99.90
38118;DHT22;23928;47.562;7.508;2023-08-07T10:07:41;16.80;99.90
38118;DHT22;23928;47.562;7.508;2023-08-07T10:10:08;16.90;99.90
38118;DHT22;23928;47.562;7.508;2023-08-07T10:12:35;17.50;99.90
38118;DHT22;23928;47.562;7.508;2023-08-07T10:15:01;17.80;99.90
38118;DHT22;23928;47.562;7.508;2023-08-07T10:17:28;17.90;99.90
38118;DHT22;23928;47.562;7.508;2023-08-07T10:19:54;18.30;99.90
38118;DHT22;23928;47.562;7.508;2023-08-07T10:22:20;18.60;99.90
38118;DHT22;23928;47.562;7.508;2023-08-07T10:24:49;18.90;99.90
38118;DHT22;23928;47.562;7.508;2023-08-07T10:27:17;19.00;99.90
38118;DHT22;23928;47.562;7.508;2023-08-07T10:29:46;18.60;99.90
38118;DHT22;23928;47.562;7.508;2023-08-07T10:32:13;18.30;99.90
38118;DHT22;23928;47.562;7.508;2023-08-07T10:34:42;17.90;99.90
38118;DHT22;23928;47.562;7.508;2023-08-07T10:40:04;17.10;99.90
38118;DHT22;23928;47.562;7.508;2023-08-07T10:45:20;16.90;99.90
38118;DHT22;23928;47.562;7.508;2023-08-07T10:48:17;17.40;99.90
38118;DHT22;23928;47.562;7.508;2023-08-07T10:50:50;17.80;99.90
38118;DHT22;23928;47.562;7.508;2023-08-07T10:53:40;18.30;99.90
38118;DHT22;23928;47.562;7.508;2023-08-07T10:58:55;18.50;99.90
38118;DHT22;23928;47.562;7.508;2023-08-07T11:03:58;17.70;99.90
38118;DHT22;23928;47.562;7.508;2023-08-07T11:06:25;17.90;99.90
38118;DHT22;23928;47.562;7.508;2023-08-07T11:08:54;18.20;99.90
38118;DHT22;23928;47.562;7.508;2023-08-07T11:11:20;18.00;99.90
38118;DHT22;23928;47.562;7.508;2023-08-07T11:13:46;18.40;99.90
38118;DHT22;23928;47.562;7.508;2023-08-07T11:16:12;19.00;99.90
38118;DHT22;23928;47.562;7.508;2023-08-07T11:18:38;19.00;99.90
38118;DHT22;23928;47.562;7.508;2023-08-07T11:21:08;19.10;99.90
38118;DHT22;23928;47.562;7.508;2023-08-07T11:23:33;19.40;99.90
38118;DHT22;23928;47.562;7.508;2023-08-07T11:26:00;19.00;99.90
38118;DHT22;23928;47.562;7.508;2023-08-07T11:28:28;18.90;99.90
38118;DHT22;23928;47.562;7.508;2023-08-07T11:30:54;18.80;99.90
38118;DHT22;23928;47.562;7.508;2023-08-07T11:33:21;18.90;99.90
38118;DHT22;23928;47.562;7.508;2023-08-07T11:35:48;19.00;99.90
38118;DHT22;23928;47.562;7.508;2023-08-07T11:40:58;19.00;99.90
38118;DHT22;23928;47.562;7.508;2023-08-07T11:43:24;19.60;99.90
38118;DHT22;23928;47.562;7.508;2023-08-07T11:45:50;19.10;99.90
38118;DHT22;23928;47.562;7.508;2023-08-07T11:48:16;19.30;99.90
38118;DHT22;23928;47.562;7.508;2023-08-07T11:50:42;19.20;99.90
38118;DHT22;23928;47.562;7.508;2023-08-07T11:53:08;19.00;99.90
38118;DHT22;23928;47.562;7.508;2023-08-07T11:55:34;18.80;99.90
38118;DHT22;23928;47.562;7.508;2023-08-07T11:58:03;18.50;99.90
38118;DHT22;23928;47.562;7.508;2023-08-07T12:00:28;18.80;99.90
38118;DHT22;23928;47.562;7.508;2023-08-07T12:02:54;18.40;99.90
38118;DHT22;23928;47.562;7.508;2023-08-07T12:05:20;18.90;99.90
38118;DHT22;23928;47.562;7.508;2023-08-07T12:07:47;18.70;99.90
38118;DHT22;23928;47.562;7.508;2023-08-07T12:10:14;19.20;99.90
38118;DHT22;23928;47.562;7.508;2023-08-07T12:12:39;19.10;99.90
38118;DHT22;23928;47.562;7.508;2023-08-07T12:15:08;19.60;99.90
38118;DHT22;23928;47.562;7.508;2023-08-07T12:17:38;19.20;99.90
38118;DHT22;23928;47.562;7.508;2023-08-07T12:20:05;18.10;99.90
38118;DHT22;23928;47.562;7.508;2023-08-07T12:22:36;18.00;99.90
38118;DHT22;23928;47.562;7.508;2023-08-07T12:25:02;17.50;99.90
38118;DHT22;23928;47.562;7.508;2023-08-07T12:27:28;17.50;99.90
38118;DHT22;23928;47.562;7.508;2023-08-07T12:29:54;17.80;99.90
38118;DHT22;23928;47.562;7.508;2023-08-07T12:32:19;18.10;99.90
38118;DHT22;23928;47.562;7.508;2023-08-07T12:34:45;17.80;99.90
38118;DHT22;23928;47.562;7.508;2023-08-07T12:37:10;17.80;99.90
38118;DHT22;23928;47.562;7.508;2023-08-07T12:39:36;18.50;99.90
38118;DHT22;23928;47.562;7.508;2023-08-07T12:42:02;18.50;99.90
38118;DHT22;23928;47.562;7.508;2023-08-07T12:44:29;18.80;99.90
38118;DHT22;23928;47.562;7.508;2023-08-07T12:46:54;19.70;99.90
38118;DHT22;23928;47.562;7.508;2023-08-07T12:49:20;19.60;99.90
38118;DHT22;23928;47.562;7.508;2023-08-07T12:51:45;20.00;99.90
38118;DHT22;23928;47.562;7.508;2023-08-07T12:54:11;20.50;99.90
38118;DHT22;23928;47.562;7.508;2023-08-07T12:56:37;19.40;99.90
38118;DHT22;23928;47.562;7.508;2023-08-07T12:59:02;19.10;99.90
38118;DHT22;23928;47.562;7.508;2023-08-07T13:01:28;19.40;99.90
38118;DHT22;23928;47.562;7.508;2023-08-07T13:03:53;19.20;99.90
38118;DHT22;23928;47.562;7.508;2023-08-07T13:06:19;19.80;99.90
38118;DHT22;23928;47.562;7.508;2023-08-07T13:08:44;19.80;99.90
38118;DHT22;23928;47.562;7.508;2023-08-07T13:11:11;20.40;99.90
38118;DHT22;23928;47.562;7.508;2023-08-07T13:13:37;20.30;99.90
38118;DHT22;23928;47.562;7.508;2023-08-07T13:16:04;20.10;99.90
38118;DHT22;23928;47.562;7.508;2023-08-07T13:18:29;20.20;99.90
38118;DHT22;23928;47.562;7.508;2023-08-07T13:20:55;20.80;99.90
38118;DHT22;23928;47.562;7.508;2023-08-07T13:23:21;21.00;99.90
38118;DHT22;23928;47.562;7.508;2023-08-07T13:25:47;20.70;99.90
38118;DHT22;23928;47.562;7.508;2023-08-07T13:28:13;20.70;99.90
38118;DHT22;23928;47.562;7.508;2023-08-07T13:30:39;20.50;99.90
38118;DHT22;23928;47.562;7.508;2023-08-07T13:33:05;20.20;99.90
38118;DHT22;23928;47.562;7.508;2023-08-07T13:35:30;19.90;99.90
38118;DHT22;23928;47.562;7.508;2023-08-07T13:37:58;20.10;99.90
38118;DHT22;23928;47.562;7.508;2023-08-07T13:40:23;20.10;99.90
38118;DHT22;23928;47.562;7.508;2023-08-07T13:42:49;20.00;99.90
38118;DHT22;23928;47.562;7.508;2023-08-07T13:45:14;20.40;99.90
38118;DHT22;23928;47.562;7.508;2023-08-07T13:47:40;20.40;99.90
38118;DHT22;23928;47.562;7.508;2023-08-07T13:50:06;20.10;99.90
38118;DHT22;23928;47.562;7.508;2023-08-07T13:52:33;20.50;99.90
38118;DHT22;23928;47.562;7.508;2023-08-07T13:54:59;21.40;99.90
38118;DHT22;23928;47.562;7.508;2023-08-07T13:57:25;21.60;99.90
38118;DHT22;23928;47.562;7.508;2023-08-07T13:59:50;21.50;99.90
38118;DHT22;23928;47.562;7.508;2023-08-07T14:02:16;20.60;99.90
38118;DHT22;23928;47.562;7.508;2023-08-07T14:04:41;19.90;99.90
38118;DHT22;23928;47.562;7.508;2023-08-07T14:07:10;19.30;99.90
38118;DHT22;23928;47.562;7.508;2023-08-07T14:09:36;19.30;99.90
38118;DHT22;23928;47.562;7.508;2023-08-07T14:12:02;19.20;99.90
38118;DHT22;23928;47.562;7.508;2023-08-07T14:14:28;19.30;99.90
38118;DHT22;23928;47.562;7.508;2023-08-07T14:17:08;19.00;99.90
38118;DHT22;23928;47.562;7.508;2023-08-07T14:19:34;18.70;99.90
38118;DHT22;23928;47.562;7.508;2023-08-07T14:22:00;18.40;99.90
38118;DHT22;23928;47.562;7.508;2023-08-07T14:24:26;18.20;99.90
38118;DHT22;23928;47.562;7.508;2023-08-07T14:26:51;17.70;99.90
38118;DHT22;23928;47.562;7.508;2023-08-07T14:29:17;17.50;99.90
38118;DHT22;23928;47.562;7.508;2023-08-07T14:31:42;17.50;99.90
38118;DHT22;23928;47.562;7.508;2023-08-07T14:34:08;17.50;99.90
38118;DHT22;23928;47.562;7.508;2023-08-07T14:36:34;17.40;99.90
38118;DHT22;23928;47.562;7.508;2023-08-07T14:38:59;18.20;99.90
38118;DHT22;23928;47.562;7.508;2023-08-07T14:41:25;19.30;99.90
38118;DHT22;23928;47.562;7.508;2023-08-07T14:43:50;19.70;99.90
38118;DHT22;23928;47.562;7.508;2023-08-07T14:46:16;18.90;99.90
38118;DHT22;23928;47.562;7.508;2023-08-07T14:48:43;19.00;99.90
38118;DHT22;23928;47.562;7.508;2023-08-07T14:51:09;18.70;99.90
38118;DHT22;23928;47.562;7.508;2023-08-07T14:53:35;18.40;99.90
38118;DHT22;23928;47.562;7.508;2023-08-07T14:56:00;18.60;99.90
38118;DHT22;23928;47.562;7.508;2023-08-07T14:58:26;18.80;99.90
38118;DHT22;23928;47.562;7.508;2023-08-07T15:00:55;18.80;99.90
38118;DHT22;23928;47.562;7.508;2023-08-07T15:03:21;18.80;99.90
38118;DHT22;23928;47.562;7.508;2023-08-07T15:05:46;18.90;99.90
38118;DHT22;23928;47.562;7.508;2023-08-07T15:08:12;18.60;99.90
38118;DHT22;23928;47.562;7.508;2023-08-07T15:10:37;18.60;99.90
38118;DHT22;23928;47.562;7.508;2023-08-07T15:13:05;18.70;99.90
38118;DHT22;23928;47.562;7.508;2023-08-07T15:15:30;19.10;99.90
38118;DHT22;23928;47.562;7.508;2023-08-07T15:17:56;19.50;99.90
38118;DHT22;23928;47.562;7.508;2023-08-07T15:20:22;19.20;99.90
38118;DHT22;23928;47.562;7.508;2023-08-07T15:22:47;18.80;99.90
38118;DHT22;23928;47.562;7.508;2023-08-07T15:25:13;18.80;99.90
38118;DHT22;23928;47.562;7.508;2023-08-07T15:27:39;19.00;99.90
38118;DHT22;23928;47.562;7.508;2023-08-07T15:30:06;20.30;99.90
38118;DHT22;23928;47.562;7.508;2023-08-07T15:32:32;20.80;99.90
38118;DHT22;23928;47.562;7.508;2023-08-07T15:34:58;20.50;99.90
38118;DHT22;23928;47.562;7.508;2023-08-07T15:37:24;20.20;99.90
38118;DHT22;23928;47.562;7.508;2023-08-07T15:39:49;19.60;99.90
38118;DHT22;23928;47.562;7.508;2023-08-07T15:42:15;20.20;99.90
38118;DHT22;23928;47.562;7.508;2023-08-07T15:44:40;20.40;99.90
38118;DHT22;23928;47.562;7.508;2023-08-07T15:47:06;20.70;99.90
38118;DHT22;23928;47.562;7.508;2023-08-07T15:49:31;21.30;99.90
38118;DHT22;23928;47.562;7.508;2023-08-07T15:51:57;21.20;99.90